Time;durP1;ratioP1;P1;durP2;ratioP2;P2;SDS_P1;SDS_P2;PMS_P1;PMS_P2;Temp;Humidity;BMP_temperature;BMP_pressure;BME280_temperature;BME280_humidity;BME280_pressure;Samples;Min_cycle;Max_cycle;Signal;HPM_P1;HPM_P2
2023/12/30 00:00:34;;;;;;;;;6.33;4.00;;;;;15.70;100.00;100990.66;2088068;28;44962;-60
2023/12/30 00:01:35;;;;;;;;;3.33;3.33;;;;;15.68;100.00;100993.41;2078474;28;44934;-58
2023/12/30 00:02:35;;;;;;;;;4.00;4.00;;;;;15.69;100.00;100996.94;2078637;28;44977;-60
2023/12/30 00:03:36;;;;;;;;;4.00;4.00;;;;;15.70;100.00;100991.53;2087945;28;44899;-60
2023/12/30 00:04:36;;;;;;;;;3.00;3.00;;;;;15.70;100.00;100993.34;2088035;28;44834;-59
2023/12/30 00:05:36;;;;;;;;;4.00;4.00;;;;;15.70;100.00;100990.66;2088094;28;44926;-60
2023/12/30 00:06:37;;;;;;;;;4.00;3.00;;;;;15.71;100.00;100990.59;2087881;28;44740;-59
2023/12/30 00:07:37;;;;;;;;;3.67;3.00;;;;;15.70;100.00;100990.66;2088160;28;44885;-61
2023/12/30 00:08:38;;;;;;;;;5.00;2.00;;;;;15.69;100.00;100988.91;2088822;28;44758;-61
2023/12/30 00:09:38;;;;;;;;;3.00;3.00;;;;;15.66;100.00;100987.25;2088492;28;44903;-60
2023/12/30 00:10:38;;;;;;;;;2.00;2.00;;;;;15.70;100.00;100988.84;2088100;28;45085;-60
2023/12/30 00:11:39;;;;;;;;;3.33;3.00;;;;;15.71;100.00;100987.06;2088332;28;44822;-60
2023/12/30 00:12:39;;;;;;;;;4.00;3.00;;;;;15.69;100.00;100984.44;2085217;28;45264;-61
2023/12/30 00:13:40;;;;;;;;;6.33;2.00;;;;;15.70;100.00;100980.84;2088092;28;45273;-60
2023/12/30 00:14:40;;;;;;;;;5.00;5.00;;;;;15.70;100.00;100982.63;2088274;28;44958;-60
2023/12/30 00:15:40;;;;;;;;;2.00;2.00;;;;;15.69;100.00;100975.53;2088065;28;44893;-60
2023/12/30 00:16:41;;;;;;;;;9.00;7.67;;;;;15.69;100.00;100975.53;2088201;28;44982;-60
2023/12/30 00:17:42;;;;;;;;;6.00;6.00;;;;;15.68;100.00;100973.81;2088088;28;44901;-59
2023/12/30 00:18:42;;;;;;;;;7.00;5.00;;;;;15.67;100.00;100975.59;2087769;28;45018;-61
2023/12/30 00:19:44;;;;;;;;;5.67;3.00;;;;;15.68;100.00;100969.31;2087095;28;45078;-61
2023/12/30 00:20:45;;;;;;;;;3.00;3.00;;;;;15.67;100.00;100967.59;2088014;28;45005;-59
2023/12/30 00:21:45;;;;;;;;;2.67;1.33;;;;;15.66;100.00;100973.88;2088059;28;44847;-60
2023/12/30 00:22:46;;;;;;;;;3.00;3.00;;;;;15.66;100.00;100973.88;2087489;28;45050;-61
2023/12/30 00:23:47;;;;;;;;;2.00;2.00;;;;;15.67;100.00;100980.09;2081087;28;44962;-60
2023/12/30 00:24:48;;;;;;;;;4.00;3.25;;;;;15.67;100.00;100980.97;2088243;28;44819;-60
2023/12/30 00:25:48;;;;;;;;;3.67;3.33;;;;;15.68;100.00;100985.38;2088250;28;44866;-60
2023/12/30 00:26:49;;;;;;;;;2.00;2.00;;;;;15.68;100.00;100985.38;2087978;28;44884;-58
2023/12/30 00:27:51;;;;;;;;;2.00;2.00;;;;;15.69;100.00;100980.91;2088788;28;44829;-61
2023/12/30 00:28:53;;;;;;;;;2.00;2.00;;;;;15.69;100.00;100978.22;2088216;28;44880;-58
2023/12/30 00:29:53;;;;;;;;;3.00;3.00;;;;;15.67;100.00;100980.09;2088061;28;44787;-60
2023/12/30 00:30:53;;;;;;;;;4.33;3.00;;;;;15.67;100.00;100977.41;2087798;28;44934;-60
2023/12/30 00:31:53;;;;;;;;;2.00;2.00;;;;;15.66;100.00;100984.56;2087983;28;44775;-60
2023/12/30 00:32:54;;;;;;;;;4.00;4.00;;;;;15.66;100.00;100983.69;2087944;28;45171;-60
2023/12/30 00:33:59;;;;;;;;;2.00;2.00;;;;;15.66;100.00;100981.88;2087934;28;44877;-60
2023/12/30 00:34:59;;;;;;;;;0.00;0.00;;;;;15.64;100.00;100986.44;2088087;28;45111;-60
2023/12/30 00:36:03;;;;;;;;;2.67;2.67;;;;;15.66;100.00;100986.38;2088063;28;44963;-60
2023/12/30 00:37:03;;;;;;;;;2.25;2.00;;;;;15.64;100.00;100980.22;2088117;28;44878;-58
2023/12/30 00:38:04;;;;;;;;;3.00;3.00;;;;;15.63;100.00;100979.34;2088015;28;44853;-58
2023/12/30 00:39:04;;;;;;;;;2.00;2.00;;;;;15.64;100.00;100978.41;2086884;28;44945;-59
2023/12/30 00:40:05;;;;;;;;;4.00;3.00;;;;;15.64;100.00;100980.22;2087087;28;45009;-59
2023/12/30 00:41:05;;;;;;;;;3.00;2.33;;;;;15.59;100.00;100980.34;2070276;28;44840;-59
2023/12/30 00:42:06;;;;;;;;;5.33;4.67;;;;;15.62;100.00;100977.56;2070292;28;44897;-59
2023/12/30 00:43:06;;;;;;;;;2.67;2.00;;;;;15.64;100.00;100977.53;2077887;28;44836;-59
2023/12/30 00:44:07;;;;;;;;;4.67;3.33;;;;;15.64;100.00;100972.19;2079152;28;45549;-59
2023/12/30 00:45:07;;;;;;;;;3.00;3.00;;;;;15.64;100.00;100972.19;2089517;28;44850;-58
2023/12/30 00:46:08;;;;;;;;;5.00;3.00;;;;;15.64;100.00;100978.41;2089265;28;44864;-59
2023/12/30 00:47:10;;;;;;;;;4.00;2.75;;;;;15.62;100.00;100980.25;2089648;28;44886;-60
2023/12/30 00:48:11;;;;;;;;;3.25;3.00;;;;;15.61;100.00;100975.81;2089412;28;44940;-59
2023/12/30 00:49:11;;;;;;;;;3.00;3.00;;;;;15.61;100.00;100973.16;2089628;28;44875;-60
2023/12/30 00:50:12;;;;;;;;;5.00;3.33;;;;;15.62;100.00;100974.03;2089282;28;45412;-58
2023/12/30 00:51:13;;;;;;;;;2.25;2.25;;;;;15.62;100.00;100974.03;2089486;28;44763;-61
2023/12/30 00:52:13;;;;;;;;;2.00;2.00;;;;;15.62;100.00;100974.03;2089245;28;44904;-62
2023/12/30 00:53:14;;;;;;;;;3.00;2.00;;;;;15.63;100.00;100978.47;2089170;28;45036;-60
2023/12/30 00:54:14;;;;;;;;;3.33;2.00;;;;;15.61;100.00;100970.47;2089771;28;44947;-60
2023/12/30 00:55:14;;;;;;;;;3.67;2.67;;;;;15.60;100.00;100969.59;2089382;28;44833;-58
2023/12/30 00:56:15;;;;;;;;;4.33;3.33;;;;;15.60;100.00;100966.94;2079870;28;44928;-60
2023/12/30 00:57:15;;;;;;;;;3.00;3.00;;;;;15.63;100.00;100970.44;2079795;28;44927;-58
2023/12/30 00:58:15;;;;;;;;;1.00;1.00;;;;;15.61;100.00;100965.13;2080012;28;44884;-60
2023/12/30 00:59:16;;;;;;;;;2.33;2.33;;;;;15.63;100.00;100970.44;2080225;28;45525;-60
2023/12/30 01:00:16;;;;;;;;;4.33;2.33;;;;;15.62;100.00;100972.22;2080183;28;44820;-60
2023/12/30 01:01:17;;;;;;;;;2.00;2.00;;;;;15.60;100.00;100964.25;2071470;28;44899;-60
2023/12/30 01:02:17;;;;;;;;;5.00;2.00;;;;;15.61;100.00;100975.81;2071699;28;45194;-59
2023/12/30 01:03:18;;;;;;;;;3.00;3.00;;;;;15.61;100.00;100973.16;2082857;28;44859;-60
2023/12/30 01:04:18;;;;;;;;;2.00;2.00;;;;;15.61;100.00;100973.16;2079976;28;44789;-60
2023/12/30 01:05:19;;;;;;;;;2.67;2.67;;;;;15.60;100.00;100972.28;2079849;28;45357;-59
2023/12/30 01:06:20;;;;;;;;;2.00;2.00;;;;;15.62;100.00;100976.69;2080229;28;44956;-59
2023/12/30 01:07:20;;;;;;;;;3.67;3.00;;;;;15.58;100.00;100967.88;2080028;28;44820;-60
2023/12/30 01:08:20;;;;;;;;;3.33;3.33;;;;;15.57;100.00;100971.50;2079684;28;45035;-60
2023/12/30 01:09:20;;;;;;;;;4.33;3.00;;;;;15.55;100.00;100965.34;2080182;28;45000;-60
2023/12/30 01:10:21;;;;;;;;;2.00;2.00;;;;;15.57;100.00;100974.19;2079973;28;44914;-60
2023/12/30 01:11:22;;;;;;;;;3.00;3.00;;;;;15.56;100.00;100970.63;2079863;28;44826;-60
2023/12/30 01:12:22;;;;;;;;;2.67;2.67;;;;;15.57;100.00;100977.72;2075839;28;44794;-61
2023/12/30 01:13:22;;;;;;;;;4.00;2.00;;;;;15.58;100.00;100981.28;2079703;28;45589;-58
2023/12/30 01:14:23;;;;;;;;;5.00;4.33;;;;;15.57;100.00;100976.84;2079975;28;44891;-61
2023/12/30 01:15:23;;;;;;;;;5.00;3.00;;;;;15.56;100.00;100984.00;2079698;28;45244;-59
2023/12/30 01:16:23;;;;;;;;;2.00;2.00;;;;;15.55;100.00;100982.25;2079864;28;45735;-60
2023/12/30 01:17:24;;;;;;;;;3.00;2.00;;;;;15.56;100.00;100985.81;2079708;28;44950;-60
2023/12/30 01:18:25;;;;;;;;;3.00;3.00;;;;;15.56;100.00;100984.00;2079907;28;45181;-60
2023/12/30 01:19:25;;;;;;;;;4.67;3.00;;;;;15.55;100.00;100982.25;2080068;28;44789;-60
2023/12/30 01:20:25;;;;;;;;;2.67;2.00;;;;;15.51;100.00;100983.31;2080062;28;44920;-60
2023/12/30 01:21:26;;;;;;;;;2.00;2.00;;;;;15.50;100.00;100980.66;2079960;28;44925;-60
2023/12/30 01:22:26;;;;;;;;;5.00;2.00;;;;;15.49;100.00;100982.47;2080080;28;44876;-59
2023/12/30 01:23:27;;;;;;;;;2.00;2.00;;;;;15.49;100.00;100989.63;2079842;28;44899;-59
2023/12/30 01:24:28;;;;;;;;;4.00;2.00;;;;;15.47;100.00;100988.81;2079969;28;45076;-59
2023/12/30 01:25:28;;;;;;;;;3.00;2.33;;;;;15.46;100.00;100981.72;2080112;28;44895;-60
2023/12/30 01:26:28;;;;;;;;;3.67;3.67;;;;;15.48;100.00;100987.88;2079732;28;44910;-60
2023/12/30 01:27:28;;;;;;;;;1.67;1.67;;;;;15.47;100.00;100992.38;2079985;28;44891;-59
2023/12/30 01:28:30;;;;;;;;;4.33;3.00;;;;;15.47;100.00;100987.00;2088985;28;44802;-60
2023/12/30 01:29:31;;;;;;;;;5.00;4.00;;;;;15.47;100.00;100992.38;2089389;28;44826;-58
2023/12/30 01:30:31;;;;;;;;;4.00;2.67;;;;;15.47;100.00;100983.47;2089299;28;45069;-60
2023/12/30 01:31:31;;;;;;;;;4.33;2.00;;;;;15.47;100.00;100981.66;2089277;28;44869;-60
2023/12/30 01:32:32;;;;;;;;;4.33;3.00;;;;;15.45;100.00;100988.88;2084624;28;44835;-60
2023/12/30 01:33:32;;;;;;;;;3.33;3.00;;;;;15.00;100.00;100986.09;2088520;28;45091;-60
2023/12/30 01:34:32;;;;;;;;;6.67;2.67;;;;;14.90;100.00;100985.56;2088297;28;44851;-59
2023/12/30 01:35:32;;;;;;;;;5.33;4.00;;;;;14.87;100.00;100990.13;2089185;28;44898;-59
2023/12/30 01:36:33;;;;;;;;;4.67;2.33;;;;;15.25;100.00;100988.75;2089076;28;45054;-59
2023/12/30 01:37:34;;;;;;;;;2.00;2.00;;;;;15.36;100.00;100993.69;2089131;28;44977;-59
2023/12/30 01:38:34;;;;;;;;;2.50;2.00;;;;;15.39;100.00;100991.81;2088962;28;44759;-60
2023/12/30 01:39:35;;;;;;;;;5.00;3.67;;;;;15.39;100.00;100991.81;2089207;28;44771;-61
2023/12/30 01:40:35;;;;;;;;;4.00;3.00;;;;;15.39;100.00;100994.47;2088006;28;44784;-61
2023/12/30 01:41:35;;;;;;;;;4.00;4.00;;;;;15.39;100.00;100999.81;2089138;28;44929;-60
2023/12/30 01:42:39;;;;;;;;;2.00;2.00;;;;;15.41;100.00;100986.38;2089024;28;44900;-59
2023/12/30 01:43:39;;;;;;;;;1.50;1.50;;;;;15.39;100.00;100994.47;2088970;28;44907;-59
2023/12/30 01:44:41;;;;;;;;;2.00;2.00;;;;;15.42;100.00;100993.47;2088859;28;44899;-61
2023/12/30 01:45:41;;;;;;;;;3.50;3.50;;;;;15.39;100.00;100994.47;2087746;28;45362;-60
2023/12/30 01:46:43;;;;;;;;;6.00;4.00;;;;;15.40;100.00;100992.66;2089057;28;44930;-59
2023/12/30 01:47:44;;;;;;;;;4.50;3.00;;;;;15.40;100.00;101000.69;2089187;28;45501;-59
2023/12/30 01:48:45;;;;;;;;;4.00;3.00;;;;;15.38;100.00;100990.06;2088547;28;44886;-59
2023/12/30 01:49:46;;;;;;;;;3.00;3.00;;;;;15.38;100.00;100984.72;2089364;28;44887;-61
2023/12/30 01:50:48;;;;;;;;;2.75;2.75;;;;;15.39;100.00;100994.47;2088402;28;45080;-59
2023/12/30 01:51:49;;;;;;;;;3.00;2.25;;;;;15.38;100.00;100992.72;2088746;28;44921;-59
2023/12/30 01:52:50;;;;;;;;;2.00;2.00;;;;;15.39;100.00;101005.19;2088431;28;44892;-59
2023/12/30 01:53:52;;;;;;;;;3.50;3.00;;;;;15.38;100.00;100998.09;2089078;28;45003;-60
2023/12/30 01:54:52;;;;;;;;;4.50;3.50;;;;;15.37;100.00;100996.31;2087258;28;45165;-59
2023/12/30 01:55:54;;;;;;;;;2.33;2.33;;;;;15.37;100.00;100996.31;2087120;28;44936;-60
2023/12/30 01:56:55;;;;;;;;;4.50;4.00;;;;;15.35;100.00;100999.97;2088905;28;44933;-59
2023/12/30 01:57:55;;;;;;;;;3.00;3.00;;;;;15.33;100.00;100992.00;2089252;28;44798;-60
2023/12/30 01:58:56;;;;;;;;;2.00;2.00;;;;;15.33;100.00;101000.03;2088661;28;44873;-61
2023/12/30 01:59:57;;;;;;;;;4.67;2.33;;;;;15.32;100.00;100996.50;2088477;28;44970;-61
2023/12/30 02:00:58;;;;;;;;;3.25;3.25;;;;;15.37;100.00;100995.44;2088343;28;44877;-60
2023/12/30 02:01:59;;;;;;;;;3.25;2.25;;;;;15.37;100.00;100995.44;2089081;28;44973;-60
2023/12/30 02:03:00;;;;;;;;;2.33;2.00;;;;;15.38;100.00;101002.56;2088998;28;44949;-59
2023/12/30 02:04:01;;;;;;;;;3.75;3.75;;;;;15.37;100.00;100996.31;2088948;28;44956;-60
2023/12/30 02:05:01;;;;;;;;;4.67;3.33;;;;;15.33;100.00;100997.34;2089033;28;45243;-58
2023/12/30 02:06:01;;;;;;;;;3.00;3.00;;;;;15.32;100.00;101003.63;2088822;28;44962;-58
2023/12/30 02:07:02;;;;;;;;;2.00;2.00;;;;;15.32;100.00;101003.63;2088744;28;44966;-60
2023/12/30 02:08:02;;;;;;;;;3.00;3.00;;;;;15.32;100.00;101003.63;2088902;28;45349;-61
2023/12/30 02:09:03;;;;;;;;;4.00;4.00;;;;;15.34;100.00;101003.56;2088863;28;45077;-59
2023/12/30 02:10:03;;;;;;;;;2.67;2.67;;;;;15.32;100.00;101015.19;2088947;28;44834;-59
2023/12/30 02:11:04;;;;;;;;;4.00;3.33;;;;;15.31;100.00;101010.78;2089196;28;44818;-61
2023/12/30 02:12:05;;;;;;;;;3.00;2.33;;;;;15.32;100.00;101017.00;2086478;28;45224;-58
2023/12/30 02:13:05;;;;;;;;;4.00;3.75;;;;;15.31;100.00;101020.63;2084286;28;45010;-60
2023/12/30 02:14:25;;;;;;;;;3.33;3.33;;;;;15.33;100.00;101018.75;2080665;28;44840;-59
2023/12/30 02:15:25;;;;;;;;;4.00;3.00;;;;;15.30;100.00;101025.09;2088811;28;44881;-61
2023/12/30 02:16:26;;;;;;;;;5.00;3.00;;;;;15.31;100.00;101018.81;2087346;28;44802;-59
2023/12/30 02:17:26;;;;;;;;;3.00;3.00;;;;;15.31;100.00;101024.16;2087779;28;44907;-61
2023/12/30 02:18:26;;;;;;;;;3.33;2.33;;;;;15.30;100.00;101019.75;2088573;28;45591;-58
2023/12/30 02:19:27;;;;;;;;;3.33;3.33;;;;;15.30;100.00;101026.88;2089515;28;44759;-61
2023/12/30 02:20:28;;;;;;;;;4.00;2.00;;;;;15.31;100.00;101028.63;2080793;28;44803;-60
2023/12/30 02:21:28;;;;;;;;;2.00;2.00;;;;;15.27;100.00;101025.22;2085306;28;44819;-60
2023/12/30 02:22:29;;;;;;;;;3.00;2.67;;;;;15.27;100.00;101024.34;2089065;28;44768;-60
2023/12/30 02:23:29;;;;;;;;;1.67;1.67;;;;;15.29;100.00;101027.81;2089069;28;44817;-59
2023/12/30 02:24:29;;;;;;;;;3.33;3.33;;;;;15.28;100.00;101026.94;2088460;28;45542;-58
2023/12/30 02:25:30;;;;;;;;;4.00;3.00;;;;;15.34;100.00;101028.50;2089094;28;44845;-60
2023/12/30 02:26:30;;;;;;;;;3.00;3.00;;;;;15.35;100.00;101032.94;2088682;28;44882;-59
2023/12/30 02:27:31;;;;;;;;;3.00;3.00;;;;;15.40;100.00;101032.78;2088842;28;44859;-60
2023/12/30 02:28:31;;;;;;;;;0.33;0.00;;;;;15.41;100.00;101030.06;2088758;28;45086;-59
2023/12/30 02:29:31;;;;;;;;;5.33;3.00;;;;;15.43;100.00;101030.88;2088535;28;44940;-59
2023/12/30 02:30:32;;;;;;;;;1.00;1.00;;;;;15.41;100.00;101027.38;2079078;28;44938;-59
2023/12/30 02:31:33;;;;;;;;;2.67;2.00;;;;;15.39;100.00;101028.38;2079209;28;45308;-59
2023/12/30 02:32:34;;;;;;;;;3.00;3.00;;;;;15.37;100.00;101036.41;2088435;28;44882;-60
2023/12/30 02:33:34;;;;;;;;;5.00;5.00;;;;;15.40;100.00;101035.47;2088799;28;44779;-59
2023/12/30 02:34:34;;;;;;;;;7.67;5.67;;;;;15.44;100.00;101032.59;2088234;28;44900;-59
2023/12/30 02:35:34;;;;;;;;;3.67;2.00;;;;;15.43;100.00;101033.53;2088758;28;44948;-59
2023/12/30 02:36:35;;;;;;;;;2.00;2.00;;;;;15.42;100.00;101028.25;2079037;28;44919;-59
2023/12/30 02:37:35;;;;;;;;;2.00;2.00;;;;;15.39;100.00;101021.22;2079333;28;44958;-60
2023/12/30 02:38:35;;;;;;;;;2.00;2.00;;;;;15.40;100.00;101032.78;2088554;28;44872;-59
2023/12/30 02:39:36;;;;;;;;;4.00;2.00;;;;;15.42;100.00;101025.56;2088732;28;44952;-59
2023/12/30 02:40:36;;;;;;;;;3.33;2.00;;;;;15.43;100.00;101025.50;2088485;28;44863;-60
2023/12/30 02:41:36;;;;;;;;;2.00;2.00;;;;;15.44;100.00;101029.94;2088668;28;44921;-61
2023/12/30 02:42:37;;;;;;;;;3.00;3.00;;;;;15.45;100.00;101030.81;2088466;28;45008;-60
2023/12/30 02:43:59;;;;;;;;;4.33;2.67;;;;;15.45;100.00;101029.00;2088665;28;44755;-61
2023/12/30 02:45:00;;;;;;;;;4.50;3.00;;;;;15.43;100.00;101025.50;2084550;28;44888;-60
2023/12/30 02:46:00;;;;;;;;;1.00;1.00;;;;;15.43;100.00;101028.19;2088595;28;44866;-60
2023/12/30 02:47:01;;;;;;;;;1.00;1.00;;;;;15.44;100.00;101026.38;2088815;28;44945;-60
2023/12/30 02:48:01;;;;;;;;;2.33;2.00;;;;;15.44;100.00;101026.38;2088432;28;44784;-60
2023/12/30 02:49:05;;;;;;;;;3.00;2.00;;;;;15.44;100.00;101021.91;2088599;28;44915;-59
2023/12/30 02:50:06;;;;;;;;;3.00;2.00;;;;;15.46;100.00;101028.06;2095954;28;44770;-60
2023/12/30 02:51:06;;;;;;;;;1.75;1.75;;;;;15.46;100.00;101025.41;2095430;28;44870;-60
2023/12/30 02:52:06;;;;;;;;;2.67;2.33;;;;;15.46;100.00;101021.84;2088615;28;44893;-60
2023/12/30 02:53:06;;;;;;;;;3.00;2.67;;;;;15.46;100.00;101030.75;2088414;28;44897;-60
2023/12/30 02:54:07;;;;;;;;;2.00;2.00;;;;;15.46;100.00;101027.19;2088626;28;44947;-60
2023/12/30 02:55:07;;;;;;;;;4.00;2.00;;;;;15.45;100.00;101031.66;2088612;28;44921;-60
2023/12/30 02:56:18;;;;;;;;;2.00;2.00;;;;;15.46;100.00;101025.41;2088578;28;45081;-60
2023/12/30 02:57:18;;;;;;;;;2.75;2.00;;;;;15.41;100.00;101024.69;2088494;28;44925;-60
2023/12/30 02:58:18;;;;;;;;;2.67;2.67;;;;;15.38;100.00;101018.59;2088835;28;45133;-60
2023/12/30 02:59:19;;;;;;;;;3.33;2.00;;;;;15.37;100.00;101020.38;2088247;28;44851;-60
2023/12/30 03:00:19;;;;;;;;;2.67;2.00;;;;;15.37;100.00;101023.03;2088430;28;44755;-60
2023/12/30 03:01:19;;;;;;;;;4.33;2.00;;;;;15.35;100.00;101030.25;2088715;28;44965;-60
2023/12/30 03:02:20;;;;;;;;;2.00;2.00;;;;;15.32;100.00;101025.91;2088483;28;44837;-59
2023/12/30 03:03:20;;;;;;;;;3.00;2.00;;;;;15.30;100.00;101017.06;2088262;28;44860;-59
2023/12/30 03:04:20;;;;;;;;;3.67;2.33;;;;;15.32;100.00;101023.22;2088408;28;44857;-60
2023/12/30 03:05:20;;;;;;;;;5.00;3.00;;;;;15.32;100.00;101022.34;2087848;28;45635;-59
2023/12/30 03:06:22;;;;;;;;;3.00;3.00;;;;;15.33;100.00;101026.78;2081765;28;44962;-60
2023/12/30 03:07:22;;;;;;;;;4.00;3.00;;;;;15.28;100.00;101021.59;2086831;28;45058;-58
2023/12/30 03:08:22;;;;;;;;;3.00;3.00;;;;;15.32;100.00;101017.88;2088402;28;45239;-60
2023/12/30 03:09:23;;;;;;;;;4.00;2.00;;;;;15.22;100.00;101027.16;2088076;28;44843;-60
2023/12/30 03:10:23;;;;;;;;;4.67;3.00;;;;;15.25;100.00;101024.41;2087817;28;44863;-59
2023/12/30 03:11:23;;;;;;;;;3.33;2.67;;;;;15.30;100.00;101018.88;2088470;28;44799;-59
2023/12/30 03:12:24;;;;;;;;;3.00;2.00;;;;;15.22;100.00;101018.25;2088336;28;44712;-60
2023/12/30 03:13:24;;;;;;;;;4.00;1.33;;;;;15.20;100.00;101029.00;2088461;28;44783;-61
2023/12/30 03:14:24;;;;;;;;;2.00;2.00;;;;;15.15;100.00;101032.78;2088201;28;44986;-60
2023/12/30 03:15:25;;;;;;;;;5.33;3.33;;;;;15.18;100.00;101025.53;2088292;28;44964;-60
2023/12/30 03:16:25;;;;;;;;;2.33;2.33;;;;;15.21;100.00;101032.56;2088318;28;45244;-61
2023/12/30 03:17:25;;;;;;;;;3.00;1.67;;;;;15.20;100.00;101026.34;2088418;28;44886;-59
2023/12/30 03:18:26;;;;;;;;;2.00;2.00;;;;;15.22;100.00;101028.97;2088438;28;45163;-61
2023/12/30 03:19:26;;;;;;;;;3.67;2.00;;;;;15.25;100.00;101034.22;2088828;28;44937;-59
2023/12/30 03:20:26;;;;;;;;;2.33;1.67;;;;;15.26;100.00;101023.47;2088341;28;45122;-58
2023/12/30 03:21:27;;;;;;;;;3.00;2.00;;;;;15.26;100.00;101022.59;2079020;28;45069;-58
2023/12/30 03:22:27;;;;;;;;;4.00;3.00;;;;;15.26;100.00;101028.81;2079054;28;44866;-60
2023/12/30 03:23:27;;;;;;;;;4.67;3.00;;;;;15.23;100.00;101022.69;2088329;28;44969;-59
2023/12/30 03:24:28;;;;;;;;;5.00;4.67;;;;;15.23;100.00;101022.69;2088627;28;44830;-60
2023/12/30 03:25:28;;;;;;;;;2.00;2.00;;;;;15.19;100.00;101029.94;2088753;28;44823;-59
2023/12/30 03:26:28;;;;;;;;;3.00;3.00;;;;;15.18;100.00;101030.00;2088428;28;44854;-59
2023/12/30 03:27:29;;;;;;;;;2.00;2.00;;;;;15.16;100.00;101037.22;2088626;28;44783;-60
2023/12/30 03:28:29;;;;;;;;;2.67;2.67;;;;;15.18;100.00;101040.69;2087956;28;45035;-60
2023/12/30 03:29:29;;;;;;;;;3.00;3.00;;;;;15.17;100.00;101038.94;2088315;28;44941;-60
2023/12/30 03:30:30;;;;;;;;;3.00;2.00;;;;;15.15;100.00;101040.81;2088582;28;44883;-59
2023/12/30 03:31:30;;;;;;;;;2.33;2.33;;;;;15.14;100.00;101042.63;2088671;28;44764;-61
2023/12/30 03:32:31;;;;;;;;;3.00;3.00;;;;;15.16;100.00;101046.09;2088407;28;44841;-58
2023/12/30 03:33:31;;;;;;;;;2.00;2.00;;;;;15.16;100.00;101047.91;2078700;28;44853;-60
2023/12/30 03:34:31;;;;;;;;;4.00;4.00;;;;;15.16;100.00;101045.22;2078710;28;44847;-60
2023/12/30 03:35:35;;;;;;;;;2.00;2.00;;;;;15.15;100.00;101041.69;2088023;28;45579;-60
2023/12/30 03:36:35;;;;;;;;;2.25;2.00;;;;;15.15;100.00;101048.84;2088337;28;44771;-60
2023/12/30 03:37:36;;;;;;;;;3.00;3.00;;;;;15.16;100.00;101035.41;2088359;28;44856;-61
2023/12/30 03:38:36;;;;;;;;;4.67;3.33;;;;;15.17;100.00;101045.19;2088420;28;44878;-60
2023/12/30 03:39:36;;;;;;;;;3.00;3.00;;;;;15.17;100.00;101044.31;2088123;28;44903;-60
2023/12/30 03:40:37;;;;;;;;;4.00;2.00;;;;;15.15;100.00;101046.16;2088182;28;44899;-59
2023/12/30 03:41:37;;;;;;;;;5.00;3.00;;;;;15.15;100.00;101044.34;2087965;28;44781;-58
2023/12/30 03:42:37;;;;;;;;;4.00;4.00;;;;;15.16;100.00;101045.22;2088078;28;44900;-60
2023/12/30 03:43:37;;;;;;;;;4.00;2.00;;;;;15.15;100.00;101044.34;2088305;28;45491;-58
2023/12/30 03:44:38;;;;;;;;;3.00;3.00;;;;;15.15;100.00;101047.03;2088988;28;44807;-59
2023/12/30 03:45:38;;;;;;;;;2.67;2.67;;;;;15.15;100.00;101039.00;2088405;28;44803;-59
2023/12/30 03:46:40;;;;;;;;;3.00;3.00;;;;;15.14;100.00;101039.94;2088683;28;44924;-60
2023/12/30 03:47:41;;;;;;;;;3.00;2.75;;;;;15.14;100.00;101036.41;2088134;28;44838;-61
2023/12/30 03:48:42;;;;;;;;;3.75;2.25;;;;;15.15;100.00;101044.34;2088211;28;44900;-61
2023/12/30 03:49:42;;;;;;;;;3.00;1.00;;;;;15.14;100.00;101050.63;2088005;28;44941;-61
2023/12/30 03:50:43;;;;;;;;;5.00;2.00;;;;;15.15;100.00;101039.00;2088306;28;44915;-60
2023/12/30 03:51:43;;;;;;;;;2.00;1.67;;;;;15.17;100.00;101044.31;2088177;28;44812;-60
2023/12/30 03:52:44;;;;;;;;;5.00;4.00;;;;;15.17;100.00;101044.31;2088342;28;44847;-59
2023/12/30 03:53:44;;;;;;;;;4.00;3.67;;;;;15.16;100.00;101038.09;2087683;28;44959;-59
2023/12/30 03:54:44;;;;;;;;;2.00;2.00;;;;;15.15;100.00;101038.16;2087665;28;44941;-60
2023/12/30 03:55:45;;;;;;;;;3.00;3.00;;;;;15.16;100.00;101045.22;2088006;28;44889;-60
2023/12/30 03:56:48;;;;;;;;;3.00;2.67;;;;;15.17;100.00;101039.81;2088311;28;44874;-60
2023/12/30 03:57:48;;;;;;;;;6.00;4.00;;;;;15.16;100.00;101034.53;2088281;28;44891;-60
2023/12/30 03:58:48;;;;;;;;;3.67;2.00;;;;;15.15;100.00;101038.16;2088323;28;45091;-60
2023/12/30 03:59:49;;;;;;;;;3.33;3.33;;;;;15.14;100.00;101036.41;2088328;28;44937;-60
2023/12/30 04:00:49;;;;;;;;;2.00;2.00;;;;;15.13;100.00;101040.88;2088089;28;44913;-61
2023/12/30 04:01:49;;;;;;;;;3.00;3.00;;;;;15.13;100.00;101042.69;2080724;28;44961;-60
2023/12/30 04:02:50;;;;;;;;;6.00;4.00;;;;;15.12;100.00;101036.47;2088204;28;44775;-60
2023/12/30 04:03:50;;;;;;;;;3.00;3.00;;;;;15.13;100.00;101040.00;2088146;28;44791;-61
2023/12/30 04:04:50;;;;;;;;;2.00;2.00;;;;;15.14;100.00;101044.41;2088144;28;44783;-59
2023/12/30 04:05:51;;;;;;;;;3.33;3.00;;;;;15.11;100.00;101041.81;2088228;28;44786;-60
2023/12/30 04:06:51;;;;;;;;;5.00;2.00;;;;;15.11;100.00;101034.69;2088429;28;45328;-61
2023/12/30 04:07:51;;;;;;;;;3.00;3.00;;;;;15.10;100.00;101034.75;2088287;28;44882;-60
2023/12/30 04:08:52;;;;;;;;;2.67;2.00;;;;;15.10;100.00;101034.75;2070220;28;45081;-60
2023/12/30 04:09:52;;;;;;;;;2.67;2.00;;;;;15.10;100.00;101029.38;2070847;28;44929;-60
2023/12/30 04:10:52;;;;;;;;;2.00;2.00;;;;;15.08;100.00;101036.59;2087841;28;44921;-60
2023/12/30 04:11:52;;;;;;;;;3.00;3.00;;;;;15.08;100.00;101031.25;2088000;28;45318;-61
2023/12/30 04:12:53;;;;;;;;;2.00;2.00;;;;;15.07;100.00;101033.06;2085511;28;44789;-61
2023/12/30 04:13:53;;;;;;;;;2.00;2.00;;;;;15.08;100.00;101028.56;2087881;28;44973;-60
2023/12/30 04:14:53;;;;;;;;;4.67;2.67;;;;;15.08;100.00;101036.59;2087952;28;44873;-60
2023/12/30 04:15:54;;;;;;;;;2.00;2.00;;;;;15.08;100.00;101029.44;2086839;28;45098;-60
2023/12/30 04:16:54;;;;;;;;;5.00;3.67;;;;;15.09;100.00;101028.53;2087046;28;44816;-60
2023/12/30 04:17:54;;;;;;;;;4.00;2.33;;;;;15.07;100.00;101033.06;2088069;28;44771;-60
2023/12/30 04:18:55;;;;;;;;;4.67;2.00;;;;;15.10;100.00;101032.06;2088716;28;44740;-59
2023/12/30 04:19:55;;;;;;;;;2.00;2.00;;;;;15.12;100.00;101031.09;2090055;28;44896;-61
2023/12/30 04:20:55;;;;;;;;;3.00;2.00;;;;;15.09;100.00;101031.19;2089657;28;44928;-60
2023/12/30 04:21:55;;;;;;;;;3.00;1.00;;;;;15.08;100.00;101026.78;2089848;28;44950;-59
2023/12/30 04:22:56;;;;;;;;;4.00;1.00;;;;;15.10;100.00;101022.25;2089543;28;44879;-58
2023/12/30 04:23:57;;;;;;;;;1.00;1.00;;;;;15.10;100.00;101026.72;2089789;28;44933;-60
2023/12/30 04:24:57;;;;;;;;;2.00;2.00;;;;;15.09;100.00;101023.19;2089286;28;44914;-58
2023/12/30 04:25:57;;;;;;;;;3.00;3.00;;;;;15.08;100.00;101025.91;2089539;28;45047;-60
2023/12/30 04:26:58;;;;;;;;;2.00;2.00;;;;;15.06;100.00;101022.41;2089324;28;44795;-60
2023/12/30 04:27:58;;;;;;;;;4.67;2.00;;;;;15.06;100.00;101020.63;2089636;28;44881;-60
2023/12/30 04:28:59;;;;;;;;;2.00;2.00;;;;;15.09;100.00;101019.63;2089594;28;45410;-61
2023/12/30 04:29:59;;;;;;;;;3.67;2.67;;;;;15.03;100.00;101015.38;2089557;28;44767;-60
2023/12/30 04:31:00;;;;;;;;;3.00;3.00;;;;;15.04;100.00;101019.81;2089272;28;44975;-60
2023/12/30 04:32:00;;;;;;;;;4.00;3.00;;;;;15.03;100.00;101018.06;2089634;28;44936;-60
2023/12/30 04:33:00;;;;;;;;;4.00;3.00;;;;;15.05;100.00;101016.19;2089307;28;44983;-60
2023/12/30 04:34:01;;;;;;;;;2.00;2.00;;;;;15.04;100.00;101019.81;2089506;28;44884;-59
2023/12/30 04:35:01;;;;;;;;;3.67;2.00;;;;;15.01;100.00;101018.13;2089418;28;44779;-60
2023/12/30 04:36:02;;;;;;;;;3.00;2.00;;;;;15.02;100.00;101024.34;2089697;28;45346;-60
2023/12/30 04:37:03;;;;;;;;;2.00;2.00;;;;;14.97;100.00;101015.59;2079548;28;45011;-60
2023/12/30 04:38:03;;;;;;;;;6.67;2.67;;;;;14.97;100.00;101019.13;2080119;28;44884;-60
2023/12/30 04:39:03;;;;;;;;;3.00;3.00;;;;;15.02;100.00;101027.00;2089566;28;44828;-61